Погода Булинона неделю

Могилёвская область, Белоруссия

23 - 29 мая
  • 23мая
    Сегодня
    +10°
    +24°
    Практически безоблачно
    ВремяПогодаТемператураВлажностьДавлениеВетер, м/сВероятность осадков
    00:00Практически безоблачно+15°C90 %749 мм2.7 м/с2 %
    03:00Ясно и безоблачно+14°C95 %749 мм2.5 м/с2 %
    06:00Ясно и безоблачно+13°C93 %750 мм3.5 м/с2 %
    09:00Ясно и безоблачно+18°C73 %751 мм3.4 м/с2 %
    12:00Ясно и безоблачно+22°C55 %751 мм5.2 м/с2 %
    15:00Практически безоблачно+23°C49 %752 мм5.2 м/с2 %
    18:00Ясно и безоблачно+23°C43 %751 мм4.8 м/с2 %
    21:00Ясно и безоблачно+18°C49 %753 мм3.9 м/с2 %
  • 24мая
    Пятница
    +9°
    +21°
    Практически безоблачно
    ВремяПогодаТемператураВлажностьДавлениеВетер, м/сВероятность осадков
    00:00Ясно и безоблачно+14°C55 %753 мм4.0 м/с2 %
    03:00Ясно и безоблачно+12°C58 %754 мм3.2 м/с2 %
    06:00Ясно и безоблачно+10°C60 %755 мм3.8 м/с2 %
    09:00Ясно и безоблачно+15°C51 %756 мм4.0 м/с2 %
    12:00Ясно и безоблачно+19°C42 %756 мм4.9 м/с2 %
    15:00Практически безоблачно+20°C36 %756 мм4.7 м/с2 %
    18:00Практически безоблачно+21°C37 %755 мм4.0 м/с2 %
    21:00Ясно и безоблачно+16°C51 %755 мм2.8 м/с2 %
  • 25мая
    Суббота
    +9°
    +23°
    Ясно и безоблачно
    ВремяПогодаТемператураВлажностьДавлениеВетер, м/сВероятность осадков
    00:00Ясно и безоблачно+12°C59 %755 мм3.0 м/с2 %
    03:00Ясно и безоблачно+11°C67 %755 мм2.5 м/с2 %
    06:00Ясно и безоблачно+10°C67 %755 мм3.0 м/с2 %
    09:00Ясно и безоблачно+16°C54 %755 мм2.4 м/с2 %
    12:00Ясно и безоблачно+20°C43 %755 мм3.6 м/с2 %
    15:00Ясно и безоблачно+22°C38 %754 мм3.5 м/с2 %
    18:00Ясно и безоблачно+22°C38 %753 мм2.9 м/с2 %
    21:00Ясно и безоблачно+16°C66 %753 мм1.9 м/с2 %
  • 26мая
    Воскресенье
    +14°
    +24°
    Ясно и безоблачно
    ВремяПогодаТемператураВлажностьДавлениеВетер, м/сВероятность осадков
    00:00Ясно и безоблачно+12°C77 %753 мм2.1 м/с2 %
    03:00Ясно и безоблачно+10°C82 %752 мм1.4 м/с2 %
    06:00Облачно с прояснениями+12°C75 %753 мм1.8 м/с2 %
    09:00Облачно с прояснениями+18°C55 %753 мм0.4 м/с2 %
    12:00Практически безоблачно+22°C38 %753 мм2.0 м/с2 %
    15:00Ясно и безоблачно+22°C39 %753 мм1.4 м/с2 %
    18:00Практически безоблачно+24°C40 %752 мм2.2 м/с2 %
    21:00Ясно и безоблачно+19°C61 %752 мм1.4 м/с2 %
  • 27мая
    Понедельник
    +13°
    +25°
    Пасмурно, сплошная облачность
    ВремяПогодаТемператураВлажностьДавлениеВетер, м/сВероятность осадков
    00:00Ясно и безоблачно+16°C71 %752 мм1.8 м/с2 %
    03:00Ясно и безоблачно+15°C70 %752 мм1.6 м/с2 %
    06:00Ясно и безоблачно+15°C82 %753 мм2.0 м/с2 %
    09:00Ясно и безоблачно+20°C69 %753 мм1.6 м/с2 %
    12:00Ясно и безоблачно+24°C53 %753 мм2.7 м/с17 %
    15:00Пасмурно, сплошная облачность+24°C47 %753 мм1.6 м/с33 %
    18:00Небольшая облачность и лёгкий дождик+24°C53 %752 мм1.6 м/с34 %
    21:00Практически безоблачно+21°C67 %753 мм1.8 м/с8 %
Мы используем cookies
Соглашаюсь